Harry Borthen I — LCOG — position and weather

sailwx.info

Track history (hours):
 
Tides and Currents Weather Stations Pressure Air Temp Water Temp Dewpoint Dewpoint Depression Visibility Wind Speed Wind Dir Waves Ship Positions

Oceanographic research ship Harry Borthen I (Norway)

Detailed information on ship capabilities available from University of Delaware's Ocean Information Center.

Last reported at 2017-Jun-13 19:41 UTC. Time now 2017-Jul-20 18:35 UTC.
Position N 63°26' E 010°24'.
Warning: this ship's position is 36 days out of date.

Length 15 m.

Type: Other ship. MMSI: 257202800.

Date/timePositionNaut miles runAvg speedWind from/ knotsBaromVisibWave heightAir tempDewpointWater temp
2017-Jun-13 19:41N 63°26' E 010°24'0 0.0
2017-Jun-13 19:29N 63°26' E 010°24'1 1.4
2017-Jun-13 19:00N 63°26' E 010°22'1 0.1
2017-Jun-13 11:46N 63°26' E 010°24'1 3.2
2017-Jun-13 11:30N 63°27' E 010°22'4 8.5
2017-Jun-13 10:59N 63°28' E 010°13'5 9.4
2017-Jun-13 10:30N 63°29' E 010°03'4 8.4
2017-Jun-13 10:00N 63°31' E 009°55'5 9.3
2017-Jun-13 09:30N 63°35' E 009°50'5 9.3
2017-Jun-13 09:00N 63°39' E 009°45'1 1.7
2017-Jun-13 08:29N 63°39' E 009°44'1 1.6
2017-Jun-13 08:00N 63°39' E 009°42'1 2.1
2017-Jun-13 07:30N 63°39' E 009°40'1 2.1
2017-Jun-13 07:00N 63°38' E 009°38'1 2.2
2017-Jun-13 06:30N 63°38' E 009°36'1 1.9
2017-Jun-13 06:00N 63°37' E 009°34'1 2.3
2017-Jun-13 05:30N 63°37' E 009°32'2 0.1
2017-Jun-12 15:18N 63°39' E 009°31'1 1.8
2017-Jun-12 15:00N 63°39' E 009°30'2 4.3
2017-Jun-12 14:30N 63°37' E 009°28'1 1.2
2017-Jun-12 13:30N 63°37' E 009°25'1 1.8
2017-Jun-12 13:00N 63°37' E 009°23'1 1.6
2017-Jun-12 12:30N 63°37' E 009°21'1 1.7
2017-Jun-12 12:00N 63°37' E 009°19'1 2.0
2017-Jun-12 11:30N 63°37' E 009°17'1 1.2
2017-Jun-12 10:59N 63°38' E 009°16'1 1.3
2017-Jun-12 10:30N 63°38' E 009°16'1 2.1
2017-Jun-12 10:00N 63°39' E 009°15'1 2.2
2017-Jun-12 09:30N 63°40' E 009°14'1 2.1
2017-Jun-12 09:00N 63°41' E 009°12'1 2.3
2017-Jun-12 08:30N 63°42' E 009°10'2 3.3
2017-Jun-12 08:00N 63°42' E 009°06'4 8.4
2017-Jun-12 07:30N 63°40' E 008°58'4 8.3
2017-Jun-12 07:00N 63°38' E 008°49'0 0.0
2017-Jun-11 20:24N 63°39' E 008°50'0 1.0
2017-Jun-11 20:00N 63°38' E 008°49'0 0.4
2017-Jun-11 19:24N 63°38' E 008°48'0 0.0
2017-Jun-11 19:00N 63°38' E 008°48'0 0.0
2017-Jun-11 18:30N 63°38' E 008°48'0 0.0
2017-Jun-11 18:00N 63°38' E 008°48'0 0.0
2017-Jun-11 17:30N 63°38' E 008°48'0 0.0
2017-Jun-11 17:00N 63°38' E 008°48'0 0.0
2017-Jun-11 16:24N 63°38' E 008°48'0 0.0
2017-Jun-11 16:00N 63°38' E 008°48'0 0.0
2017-Jun-11 15:30N 63°38' E 008°48'0 0.0
2017-Jun-11 15:00N 63°38' E 008°48'5 5.3
2017-Jun-11 14:00N 63°39' E 009°00'3 6.9
2017-Jun-11 13:30N 63°37' E 009°07'4 8.9
2017-Jun-11 13:00N 63°37' E 009°16'3 4.7
2017-Jun-11 12:25N 63°37' E 009°23'0 1.1
2017-Jun-11 11:58N 63°37' E 009°24'0 0.5
2017-Jun-11 11:28N 63°38' E 009°24'0 0.4
2017-Jun-11 11:00N 63°38' E 009°24'1 2.6
2017-Jun-11 10:29N 63°36' E 009°24'1 1.6
2017-Jun-11 10:00N 63°36' E 009°26'1 1.9
2017-Jun-11 09:30N 63°37' E 009°28'1 1.8
2017-Jun-11 09:00N 63°37' E 009°30'1 1.8
2017-Jun-11 08:30N 63°38' E 009°31'1 2.0
2017-Jun-11 08:00N 63°38' E 009°33'1 1.9
2017-Jun-11 07:28N 63°39' E 009°35'1 2.0
2017-Jun-11 07:00N 63°39' E 009°37'1 2.3
2017-Jun-11 06:30N 63°39' E 009°39'2 3.3
2017-Jun-11 06:00N 63°40' E 009°42'4 7.7
2017-Jun-11 05:29N 63°37' E 009°48'0 0.0
2017-Jun-10 16:57N 63°37' E 009°49'0 0.0
2017-Jun-10 16:30N 63°37' E 009°49'0 0.0
2017-Jun-10 16:00N 63°37' E 009°49'2 4.5
2017-Jun-10 15:30N 63°39' E 009°45'4 7.5
2017-Jun-10 15:00N 63°38' E 009°37'7 6.9
2017-Jun-10 14:00N 63°38' E 009°22'3 6.2
2017-Jun-10 13:31N 63°39' E 009°16'3 5.4
2017-Jun-10 12:59N 63°41' E 009°11'0 0.0
2017-Jun-10 12:29N 63°41' E 009°11'1 1.0
2017-Jun-10 12:00N 63°42' E 009°11'1 1.2
2017-Jun-10 11:30N 63°42' E 009°11'1 1.1
2017-Jun-10 10:59N 63°43' E 009°11'1 1.2
2017-Jun-10 10:29N 63°44' E 009°12'1 1.2
2017-Jun-10 09:59N 63°44' E 009°13'0 1.0
2017-Jun-10 09:30N 63°44' E 009°13'1 1.5
2017-Jun-10 09:00N 63°44' E 009°14'1 1.5
2017-Jun-10 08:29N 63°44' E 009°16'1 1.8
2017-Jun-10 07:59N 63°43' E 009°18'1 1.9
2017-Jun-10 07:30N 63°44' E 009°20'1 1.7
2017-Jun-10 07:00N 63°44' E 009°21'1 1.7
2017-Jun-10 06:30N 63°44' E 009°23'1 1.7
2017-Jun-10 06:00N 63°43' E 009°25'1 2.6
2017-Jun-10 05:30N 63°42' E 009°26'3 6.9
2017-Jun-10 05:00N 63°39' E 009°30'1 0.1
2017-Jun-09 21:26N 63°39' E 009°31'0 0.0
2017-Jun-09 20:59N 63°39' E 009°31'0 0.0
2017-Jun-09 20:29N 63°39' E 009°31'0 0.0
2017-Jun-09 20:00N 63°39' E 009°31'4 7.0
2017-Jun-09 19:30N 63°38' E 009°23'4 7.1
2017-Jun-09 19:00N 63°37' E 009°16'0 0.7
2017-Jun-09 18:30N 63°37' E 009°16'0 0.7
2017-Jun-09 18:00N 63°38' E 009°16'0 0.8
2017-Jun-09 17:30N 63°38' E 009°15'1 1.1
2017-Jun-09 16:58N 63°38' E 009°14'1 1.5
2017-Jun-09 16:29N 63°38' E 009°14'3 5.8
2017-Jun-09 15:58N 63°40' E 009°08'3 6.6
2017-Jun-09 15:28N 63°40' E 009°01'4 0.1
2017-Jun-08 12:56N 63°36' E 009°04'3 7.5
2017-Jun-08 12:29N 63°38' E 009°11'1 1.6
2017-Jun-08 11:51N 63°37' E 009°13'1 2.1
2017-Jun-08 11:30N 63°37' E 009°15'2 2.8
2017-Jun-08 10:54N 63°36' E 009°18'2 2.8
2017-Jun-08 10:07N 63°36' E 009°23'0 1.8
2017-Jun-08 10:01N 63°36' E 009°24'2 3.2
2017-Jun-08 09:21N 63°34' E 009°24'1 1.6
2017-Jun-08 08:59N 63°35' E 009°26'1 1.9
2017-Jun-08 08:28N 63°35' E 009°27'1 2.5
2017-Jun-08 07:59N 63°36' E 009°30'1 2.5
2017-Jun-08 07:30N 63°37' E 009°31'1 2.3
2017-Jun-08 07:00N 63°38' E 009°33'1 2.9
2017-Jun-08 06:31N 63°38' E 009°37'2 3.3
2017-Jun-08 06:00N 63°39' E 009°40'3 5.0
2017-Jun-08 05:29N 63°41' E 009°40'0 0.0
2017-Jun-07 15:24N 63°41' E 009°40'1 3.0
2017-Jun-07 15:00N 63°40' E 009°39'6 6.3
2017-Jun-07 13:59N 63°36' E 009°28'0 0.7
2017-Jun-07 13:29N 63°36' E 009°29'0 0.7
2017-Jun-07 13:00N 63°35' E 009°29'0 0.6
2017-Jun-07 12:29N 63°36' E 009°28'1 1.0
2017-Jun-07 11:59N 63°36' E 009°27'0 0.9
2017-Jun-07 11:29N 63°36' E 009°27'1 1.2
2017-Jun-07 11:00N 63°37' E 009°26'1 1.4
2017-Jun-07 10:30N 63°37' E 009°25'0 0.3
2017-Jun-07 10:00N 63°37' E 009°25'0 0.9
2017-Jun-07 09:28N 63°37' E 009°25'0 0.7
2017-Jun-07 09:00N 63°37' E 009°25'1 1.8
2017-Jun-07 08:28N 63°37' E 009°23'1 2.2
2017-Jun-07 08:00N 63°37' E 009°20'1 2.2
2017-Jun-07 07:30N 63°36' E 009°18'1 1.7
2017-Jun-07 07:00N 63°37' E 009°17'1 1.7
2017-Jun-07 06:30N 63°38' E 009°16'1 1.5
2017-Jun-07 06:00N 63°38' E 009°14'3 6.0
2017-Jun-07 05:30N 63°40' E 009°08'1 0.1
2017-Jun-06 13:58N 63°40' E 009°06'2 4.6
2017-Jun-06 13:29N 63°41' E 009°01'3 5.5
2017-Jun-06 13:00N 63°42' E 009°06'2 3.7
2017-Jun-06 12:30N 63°43' E 009°10'1 1.2
2017-Jun-06 12:00N 63°43' E 009°11'1 1.4
2017-Jun-06 11:29N 63°42' E 009°10'1 2.0
2017-Jun-06 11:00N 63°42' E 009°08'1 2.1
2017-Jun-06 10:30N 63°43' E 009°06'1 1.9
2017-Jun-06 10:00N 63°44' E 009°05'1 2.3
2017-Jun-06 09:30N 63°44' E 009°07'1 2.6
2017-Jun-06 09:00N 63°44' E 009°09'1 1.9
2017-Jun-06 08:30N 63°44' E 009°12'1 1.7
2017-Jun-06 08:00N 63°44' E 009°13'1 2.3
2017-Jun-06 07:30N 63°44' E 009°16'1 2.4
2017-Jun-06 07:00N 63°44' E 009°19'1 2.3
2017-Jun-06 06:30N 63°44' E 009°21'1 2.4
2017-Jun-06 06:00N 63°43' E 009°23'1 2.5
2017-Jun-06 05:30N 63°43' E 009°26'3 6.1
2017-Jun-06 05:00N 63°40' E 009°28'3 5.8
2017-Jun-06 04:30N 63°38' E 009°33'4 7.5
2017-Jun-06 03:59N 63°40' E 009°40'1 0.0
2017-Jun-05 14:41N 63°41' E 009°40'3 3.8
2017-Jun-05 14:00N 63°39' E 009°36'2 3.8
2017-Jun-05 13:30N 63°38' E 009°33'1 2.3
2017-Jun-05 13:00N 63°38' E 009°30'1 2.5
2017-Jun-05 12:30N 63°39' E 009°28'1 2.2
2017-Jun-05 12:00N 63°40' E 009°27'1 2.5
2017-Jun-05 11:30N 63°41' E 009°27'2 4.3
2017-Jun-05 11:00N 63°43' E 009°25'1 2.2
2017-Jun-05 10:30N 63°43' E 009°23'1 2.0
2017-Jun-05 10:00N 63°43' E 009°21'1 2.8
2017-Jun-05 09:30N 63°43' E 009°18'1 2.8
2017-Jun-05 09:00N 63°43' E 009°15'1 2.7
2017-Jun-05 08:30N 63°42' E 009°12'1 2.5
2017-Jun-05 08:00N 63°42' E 009°09'1 2.6
2017-Jun-05 07:30N 63°41' E 009°10'4 7.8
2017-Jun-05 07:00N 63°38' E 009°17'4 7.6
2017-Jun-05 06:30N 63°38' E 009°26'4 7.7
2017-Jun-05 06:00N 63°38' E 009°34'4 8.2
2017-Jun-05 05:30N 63°39' E 009°43'3 6.9
2017-Jun-05 05:00N 63°37' E 009°49'0 0.0
2017-Jun-04 18:20N 63°37' E 009°49'0 0.0
2017-Jun-04 17:59N 63°37' E 009°49'0 0.0
2017-Jun-04 17:29N 63°37' E 009°49'0 0.0
2017-Jun-04 16:59N 63°37' E 009°49'0 0.0
2017-Jun-04 16:29N 63°37' E 009°49'0 0.0
2017-Jun-04 15:59N 63°37' E 009°49'0 0.0
2017-Jun-04 15:30N 63°37' E 009°49'3 6.6
2017-Jun-04 15:00N 63°39' E 009°43'1 2.9
2017-Jun-04 14:30N 63°39' E 009°40'2 2.4
2017-Jun-04 13:30N 63°40' E 009°45'1 2.6
2017-Jun-04 12:59N 63°39' E 009°47'1 2.8
2017-Jun-04 12:30N 63°38' E 009°48'1 1.3
2017-Jun-04 11:58N 63°37' E 009°49'0 0.0
2017-Jun-04 11:28N 63°37' E 009°49'0 0.0
2017-Jun-04 10:58N 63°37' E 009°49'1 1.1
2017-Jun-04 10:28N 63°38' E 009°48'0 0.6
2017-Jun-04 09:58N 63°38' E 009°48'1 1.9
2017-Jun-04 09:30N 63°39' E 009°47'1 1.9
2017-Jun-04 09:00N 63°39' E 009°46'1 1.8
2017-Jun-04 08:30N 63°40' E 009°44'1 1.9
2017-Jun-04 07:57N 63°41' E 009°43'1 2.8
2017-Jun-04 07:30N 63°41' E 009°40'4 7.7
2017-Jun-04 07:00N 63°38' E 009°46'2 3.2
2017-Jun-04 06:28N 63°37' E 009°49'0 0.0
2017-Jun-04 05:58N 63°37' E 009°49'0 0.0
2017-Jun-04 05:28N 63°37' E 009°49'0 0.0
2017-Jun-04 04:58N 63°37' E 009°49'0 0.0
2017-Jun-04 04:28N 63°37' E 009°49'0 0.0
2017-Jun-04 03:58N 63°37' E 009°49'0 0.0
2017-Jun-04 03:28N 63°37' E 009°49'0 0.0
2017-Jun-04 02:58N 63°37' E 009°49'0 0.0
2017-Jun-04 02:28N 63°37' E 009°49'0 0.0
2017-Jun-04 01:58N 63°37' E 009°49'0 0.0
2017-Jun-04 01:28N 63°37' E 009°49'0 0.0
2017-Jun-04 00:52N 63°37' E 009°49'0 0.0
2017-Jun-04 00:28N 63°37' E 009°49'0 0.0
2017-Jun-03 23:58N 63°37' E 009°49'0 0.0
2017-Jun-03 23:28N 63°37' E 009°49'0 0.0
2017-Jun-03 22:58N 63°37' E 009°49'0 0.0
2017-Jun-03 22:28N 63°37' E 009°49'0 0.0
2017-Jun-03 21:58N 63°37' E 009°49'0 0.0
2017-Jun-03 21:28N 63°37' E 009°49'0 0.0
2017-Jun-03 20:58N 63°37' E 009°49'0 0.0
2017-Jun-03 20:28N 63°37' E 009°49'0 0.0
2017-Jun-03 19:58N 63°37' E 009°49'  
Track history (hours):
 
Tides and Currents Weather Stations Pressure Air Temp Water Temp Dewpoint Dewpoint Depression Visibility Wind Speed Wind Dir Waves Ship Positions

Oceanographic research ship Harry Borthen I (Norway)

Detailed information on ship capabilities available from University of Delaware's Ocean Information Center.

Last reported at 2017-Jun-13 19:41 UTC. Time now 2017-Jul-20 18:35 UTC.
Position N 63°26' E 010°24'.
Warning: this ship's position is 36 days out of date.

Length 15 m.

Type: Other ship. MMSI: 257202800.

Date/timePositionNaut miles runAvg speedWind from/ knotsBaromVisibWave heightAir tempDewpointWater temp
2017-Jun-13 19:41N 63°26' E 010°24'0 0.0
2017-Jun-13 19:29N 63°26' E 010°24'1 1.4
2017-Jun-13 19:00N 63°26' E 010°22'1 0.1
2017-Jun-13 11:46N 63°26' E 010°24'1 3.2
2017-Jun-13 11:30N 63°27' E 010°22'4 8.5
2017-Jun-13 10:59N 63°28' E 010°13'5 9.4
2017-Jun-13 10:30N 63°29' E 010°03'4 8.4
2017-Jun-13 10:00N 63°31' E 009°55'5 9.3
2017-Jun-13 09:30N 63°35' E 009°50'5 9.3
2017-Jun-13 09:00N 63°39' E 009°45'1 1.7
2017-Jun-13 08:29N 63°39' E 009°44'1 1.6
2017-Jun-13 08:00N 63°39' E 009°42'1 2.1
2017-Jun-13 07:30N 63°39' E 009°40'1 2.1
2017-Jun-13 07:00N 63°38' E 009°38'1 2.2
2017-Jun-13 06:30N 63°38' E 009°36'1 1.9
2017-Jun-13 06:00N 63°37' E 009°34'1 2.3
2017-Jun-13 05:30N 63°37' E 009°32'2 0.1
2017-Jun-12 15:18N 63°39' E 009°31'1 1.8
2017-Jun-12 15:00N 63°39' E 009°30'2 4.3
2017-Jun-12 14:30N 63°37' E 009°28'1 1.2
2017-Jun-12 13:30N 63°37' E 009°25'1 1.8
2017-Jun-12 13:00N 63°37' E 009°23'1 1.6
2017-Jun-12 12:30N 63°37' E 009°21'1 1.7
2017-Jun-12 12:00N 63°37' E 009°19'1 2.0
2017-Jun-12 11:30N 63°37' E 009°17'1 1.2
2017-Jun-12 10:59N 63°38' E 009°16'1 1.3
2017-Jun-12 10:30N 63°38' E 009°16'1 2.1
2017-Jun-12 10:00N 63°39' E 009°15'1 2.2
2017-Jun-12 09:30N 63°40' E 009°14'1 2.1
2017-Jun-12 09:00N 63°41' E 009°12'1 2.3
2017-Jun-12 08:30N 63°42' E 009°10'2 3.3
2017-Jun-12 08:00N 63°42' E 009°06'4 8.4
2017-Jun-12 07:30N 63°40' E 008°58'4 8.3
2017-Jun-12 07:00N 63°38' E 008°49'0 0.0
2017-Jun-11 20:24N 63°39' E 008°50'0 1.0
2017-Jun-11 20:00N 63°38' E 008°49'0 0.4
2017-Jun-11 19:24N 63°38' E 008°48'0 0.0
2017-Jun-11 19:00N 63°38' E 008°48'0 0.0
2017-Jun-11 18:30N 63°38' E 008°48'0 0.0
2017-Jun-11 18:00N 63°38' E 008°48'0 0.0
2017-Jun-11 17:30N 63°38' E 008°48'0 0.0
2017-Jun-11 17:00N 63°38' E 008°48'0 0.0
2017-Jun-11 16:24N 63°38' E 008°48'0 0.0
2017-Jun-11 16:00N 63°38' E 008°48'0 0.0
2017-Jun-11 15:30N 63°38' E 008°48'0 0.0
2017-Jun-11 15:00N 63°38' E 008°48'5 5.3
2017-Jun-11 14:00N 63°39' E 009°00'3 6.9
2017-Jun-11 13:30N 63°37' E 009°07'4 8.9
2017-Jun-11 13:00N 63°37' E 009°16'3 4.7
2017-Jun-11 12:25N 63°37' E 009°23'0 1.1
2017-Jun-11 11:58N 63°37' E 009°24'0 0.5
2017-Jun-11 11:28N 63°38' E 009°24'0 0.4
2017-Jun-11 11:00N 63°38' E 009°24'1 2.6
2017-Jun-11 10:29N 63°36' E 009°24'1 1.6
2017-Jun-11 10:00N 63°36' E 009°26'1 1.9
2017-Jun-11 09:30N 63°37' E 009°28'1 1.8
2017-Jun-11 09:00N 63°37' E 009°30'1 1.8
2017-Jun-11 08:30N 63°38' E 009°31'1 2.0
2017-Jun-11 08:00N 63°38' E 009°33'1 1.9
2017-Jun-11 07:28N 63°39' E 009°35'1 2.0
2017-Jun-11 07:00N 63°39' E 009°37'1 2.3
2017-Jun-11 06:30N 63°39' E 009°39'2 3.3
2017-Jun-11 06:00N 63°40' E 009°42'4 7.7
2017-Jun-11 05:29N 63°37' E 009°48'0 0.0
2017-Jun-10 16:57N 63°37' E 009°49'0 0.0
2017-Jun-10 16:30N 63°37' E 009°49'0 0.0
2017-Jun-10 16:00N 63°37' E 009°49'2 4.5
2017-Jun-10 15:30N 63°39' E 009°45'4 7.5
2017-Jun-10 15:00N 63°38' E 009°37'7 6.9
2017-Jun-10 14:00N 63°38' E 009°22'3 6.2
2017-Jun-10 13:31N 63°39' E 009°16'3 5.4
2017-Jun-10 12:59N 63°41' E 009°11'0 0.0
2017-Jun-10 12:29N 63°41' E 009°11'1 1.0
2017-Jun-10 12:00N 63°42' E 009°11'1 1.2
2017-Jun-10 11:30N 63°42' E 009°11'1 1.1
2017-Jun-10 10:59N 63°43' E 009°11'1 1.2
2017-Jun-10 10:29N 63°44' E 009°12'1 1.2
2017-Jun-10 09:59N 63°44' E 009°13'0 1.0
2017-Jun-10 09:30N 63°44' E 009°13'1 1.5
2017-Jun-10 09:00N 63°44' E 009°14'1 1.5
2017-Jun-10 08:29N 63°44' E 009°16'1 1.8
2017-Jun-10 07:59N 63°43' E 009°18'1 1.9
2017-Jun-10 07:30N 63°44' E 009°20'1 1.7
2017-Jun-10 07:00N 63°44' E 009°21'1 1.7
2017-Jun-10 06:30N 63°44' E 009°23'1 1.7
2017-Jun-10 06:00N 63°43' E 009°25'1 2.6
2017-Jun-10 05:30N 63°42' E 009°26'3 6.9
2017-Jun-10 05:00N 63°39' E 009°30'1 0.1
2017-Jun-09 21:26N 63°39' E 009°31'0 0.0
2017-Jun-09 20:59N 63°39' E 009°31'0 0.0
2017-Jun-09 20:29N 63°39' E 009°31'0 0.0
2017-Jun-09 20:00N 63°39' E 009°31'4 7.0
2017-Jun-09 19:30N 63°38' E 009°23'4 7.1
2017-Jun-09 19:00N 63°37' E 009°16'0 0.7
2017-Jun-09 18:30N 63°37' E 009°16'0 0.7
2017-Jun-09 18:00N 63°38' E 009°16'0 0.8
2017-Jun-09 17:30N 63°38' E 009°15'1 1.1
2017-Jun-09 16:58N 63°38' E 009°14'1 1.5
2017-Jun-09 16:29N 63°38' E 009°14'3 5.8
2017-Jun-09 15:58N 63°40' E 009°08'3 6.6
2017-Jun-09 15:28N 63°40' E 009°01'4 0.1
2017-Jun-08 12:56N 63°36' E 009°04'3 7.5
2017-Jun-08 12:29N 63°38' E 009°11'1 1.6
2017-Jun-08 11:51N 63°37' E 009°13'1 2.1
2017-Jun-08 11:30N 63°37' E 009°15'2 2.8
2017-Jun-08 10:54N 63°36' E 009°18'2 2.8
2017-Jun-08 10:07N 63°36' E 009°23'0 1.8
2017-Jun-08 10:01N 63°36' E 009°24'2 3.2
2017-Jun-08 09:21N 63°34' E 009°24'1 1.6
2017-Jun-08 08:59N 63°35' E 009°26'1 1.9
2017-Jun-08 08:28N 63°35' E 009°27'1 2.5
2017-Jun-08 07:59N 63°36' E 009°30'1 2.5
2017-Jun-08 07:30N 63°37' E 009°31'1 2.3
2017-Jun-08 07:00N 63°38' E 009°33'1 2.9
2017-Jun-08 06:31N 63°38' E 009°37'2 3.3
2017-Jun-08 06:00N 63°39' E 009°40'3 5.0
2017-Jun-08 05:29N 63°41' E 009°40'0 0.0
2017-Jun-07 15:24N 63°41' E 009°40'1 3.0
2017-Jun-07 15:00N 63°40' E 009°39'6 6.3
2017-Jun-07 13:59N 63°36' E 009°28'0 0.7
2017-Jun-07 13:29N 63°36' E 009°29'0 0.7
2017-Jun-07 13:00N 63°35' E 009°29'0 0.6
2017-Jun-07 12:29N 63°36' E 009°28'1 1.0
2017-Jun-07 11:59N 63°36' E 009°27'0 0.9
2017-Jun-07 11:29N 63°36' E 009°27'1 1.2
2017-Jun-07 11:00N 63°37' E 009°26'1 1.4
2017-Jun-07 10:30N 63°37' E 009°25'0 0.3
2017-Jun-07 10:00N 63°37' E 009°25'0 0.9
2017-Jun-07 09:28N 63°37' E 009°25'0 0.7
2017-Jun-07 09:00N 63°37' E 009°25'1 1.8
2017-Jun-07 08:28N 63°37' E 009°23'1 2.2
2017-Jun-07 08:00N 63°37' E 009°20'1 2.2
2017-Jun-07 07:30N 63°36' E 009°18'1 1.7
2017-Jun-07 07:00N 63°37' E 009°17'1 1.7
2017-Jun-07 06:30N 63°38' E 009°16'1 1.5
2017-Jun-07 06:00N 63°38' E 009°14'3 6.0
2017-Jun-07 05:30N 63°40' E 009°08'1 0.1
2017-Jun-06 13:58N 63°40' E 009°06'2 4.6
2017-Jun-06 13:29N 63°41' E 009°01'3 5.5
2017-Jun-06 13:00N 63°42' E 009°06'2 3.7
2017-Jun-06 12:30N 63°43' E 009°10'1 1.2
2017-Jun-06 12:00N 63°43' E 009°11'1 1.4
2017-Jun-06 11:29N 63°42' E 009°10'1 2.0
2017-Jun-06 11:00N 63°42' E 009°08'1 2.1
2017-Jun-06 10:30N 63°43' E 009°06'1 1.9
2017-Jun-06 10:00N 63°44' E 009°05'1 2.3
2017-Jun-06 09:30N 63°44' E 009°07'1 2.6
2017-Jun-06 09:00N 63°44' E 009°09'1 1.9
2017-Jun-06 08:30N 63°44' E 009°12'1 1.7
2017-Jun-06 08:00N 63°44' E 009°13'1 2.3
2017-Jun-06 07:30N 63°44' E 009°16'1 2.4
2017-Jun-06 07:00N 63°44' E 009°19'1 2.3
2017-Jun-06 06:30N 63°44' E 009°21'1 2.4
2017-Jun-06 06:00N 63°43' E 009°23'1 2.5
2017-Jun-06 05:30N 63°43' E 009°26'3 6.1
2017-Jun-06 05:00N 63°40' E 009°28'3 5.8
2017-Jun-06 04:30N 63°38' E 009°33'4 7.5
2017-Jun-06 03:59N 63°40' E 009°40'1 0.0
2017-Jun-05 14:41N 63°41' E 009°40'3 3.8
2017-Jun-05 14:00N 63°39' E 009°36'2 3.8
2017-Jun-05 13:30N 63°38' E 009°33'1 2.3
2017-Jun-05 13:00N 63°38' E 009°30'1 2.5
2017-Jun-05 12:30N 63°39' E 009°28'1 2.2
2017-Jun-05 12:00N 63°40' E 009°27'1 2.5
2017-Jun-05 11:30N 63°41' E 009°27'2 4.3
2017-Jun-05 11:00N 63°43' E 009°25'1 2.2
2017-Jun-05 10:30N 63°43' E 009°23'1 2.0
2017-Jun-05 10:00N 63°43' E 009°21'1 2.8
2017-Jun-05 09:30N 63°43' E 009°18'1 2.8
2017-Jun-05 09:00N 63°43' E 009°15'1 2.7
2017-Jun-05 08:30N 63°42' E 009°12'1 2.5
2017-Jun-05 08:00N 63°42' E 009°09'1 2.6
2017-Jun-05 07:30N 63°41' E 009°10'4 7.8
2017-Jun-05 07:00N 63°38' E 009°17'4 7.6
2017-Jun-05 06:30N 63°38' E 009°26'4 7.7
2017-Jun-05 06:00N 63°38' E 009°34'4 8.2
2017-Jun-05 05:30N 63°39' E 009°43'3 6.9
2017-Jun-05 05:00N 63°37' E 009°49'0 0.0
2017-Jun-04 18:20N 63°37' E 009°49'0 0.0
2017-Jun-04 17:59N 63°37' E 009°49'0 0.0
2017-Jun-04 17:29N 63°37' E 009°49'0 0.0
2017-Jun-04 16:59N 63°37' E 009°49'0 0.0
2017-Jun-04 16:29N 63°37' E 009°49'0 0.0
2017-Jun-04 15:59N 63°37' E 009°49'0 0.0
2017-Jun-04 15:30N 63°37' E 009°49'3 6.6
2017-Jun-04 15:00N 63°39' E 009°43'1 2.9
2017-Jun-04 14:30N 63°39' E 009°40'2 2.4
2017-Jun-04 13:30N 63°40' E 009°45'1 2.6
2017-Jun-04 12:59N 63°39' E 009°47'1 2.8
2017-Jun-04 12:30N 63°38' E 009°48'1 1.3
2017-Jun-04 11:58N 63°37' E 009°49'0 0.0
2017-Jun-04 11:28N 63°37' E 009°49'0 0.0
2017-Jun-04 10:58N 63°37' E 009°49'1 1.1
2017-Jun-04 10:28N 63°38' E 009°48'0 0.6
2017-Jun-04 09:58N 63°38' E 009°48'1 1.9
2017-Jun-04 09:30N 63°39' E 009°47'1 1.9
2017-Jun-04 09:00N 63°39' E 009°46'1 1.8
2017-Jun-04 08:30N 63°40' E 009°44'1 1.9
2017-Jun-04 07:57N 63°41' E 009°43'1 2.8
2017-Jun-04 07:30N 63°41' E 009°40'4 7.7
2017-Jun-04 07:00N 63°38' E 009°46'2 3.2
2017-Jun-04 06:28N 63°37' E 009°49'0 0.0
2017-Jun-04 05:58N 63°37' E 009°49'0 0.0
2017-Jun-04 05:28N 63°37' E 009°49'0 0.0
2017-Jun-04 04:58N 63°37' E 009°49'0 0.0
2017-Jun-04 04:28N 63°37' E 009°49'0 0.0
2017-Jun-04 03:58N 63°37' E 009°49'0 0.0
2017-Jun-04 03:28N 63°37' E 009°49'0 0.0
2017-Jun-04 02:58N 63°37' E 009°49'0 0.0
2017-Jun-04 02:28N 63°37' E 009°49'0 0.0
2017-Jun-04 01:58N 63°37' E 009°49'0 0.0
2017-Jun-04 01:28N 63°37' E 009°49'0 0.0
2017-Jun-04 00:52N 63°37' E 009°49'0 0.0
2017-Jun-04 00:28N 63°37' E 009°49'0 0.0
2017-Jun-03 23:58N 63°37' E 009°49'0 0.0
2017-Jun-03 23:28N 63°37' E 009°49'0 0.0
2017-Jun-03 22:58N 63°37' E 009°49'0 0.0
2017-Jun-03 22:28N 63°37' E 009°49'0 0.0
2017-Jun-03 21:58N 63°37' E 009°49'0 0.0
2017-Jun-03 21:28N 63°37' E 009°49'0 0.0
2017-Jun-03 20:58N 63°37' E 009°49'0 0.0
2017-Jun-03 20:28N 63°37' E 009°49'0 0.0
2017-Jun-03 19:58N 63°37' E 009°49'  

Dump ship's entire track history